TimeMDT,TemperatureF,Dew PointF,Humidity,Sea Level PressureIn,VisibilityMPH,Wind Direction,Wind SpeedMPH,Gust SpeedMPH,PrecipitationIn,Events,Conditions,WindDirDegrees,DateUTC
12:53 AM,55.9,53.1,90,29.91,10.0,Calm,Calm,-,N/A,,Overcast,0,2013-09-15 06:53:00
1:53 AM,55.9,53.1,90,29.90,10.0,Calm,Calm,-,0.00,Rain,Light Rain,0,2013-09-15 07:53:00
2:53 AM,55.9,51.1,84,29.92,10.0,NW,5.8,-,0.01,,Overcast,320,2013-09-15 08:53:00
3:53 AM,55.9,53.1,90,29.93,10.0,East,9.2,-,0.01,Rain,Light Rain,80,2013-09-15 09:53:00
4:53 AM,54.0,51.1,90,29.94,10.0,NE,5.8,-,0.00,,Partly Cloudy,40,2013-09-15 10:53:00
5:53 AM,53.1,50.0,89,29.94,10.0,Calm,Calm,-,N/A,,Partly Cloudy,0,2013-09-15 11:53:00
6:53 AM,53.1,51.1,93,29.96,10.0,Calm,Calm,-,N/A,,Overcast,0,2013-09-15 12:53:00
7:53 AM,54.0,51.1,90,30.00,10.0,Calm,Calm,-,N/A,,Overcast,0,2013-09-15 13:53:00
8:53 AM,57.9,52.0,81,30.02,10.0,Calm,Calm,-,N/A,,Overcast,0,2013-09-15 14:53:00
9:53 AM,62.1,53.1,72,30.02,10.0,Calm,Calm,-,N/A,,Overcast,0,2013-09-15 15:53:00
10:53 AM,68.0,51.1,55,30.01,10.0,Variable,3.5,-,N/A,,Overcast,0,2013-09-15 16:53:00
11:53 AM,68.0,54.0,61,30.01,10.0,WNW,9.2,-,N/A,,Clear,290,2013-09-15 17:53:00
12:53 PM,68.0,52.0,56,30.01,10.0,Calm,Calm,-,N/A,,Scattered Clouds,0,2013-09-15 18:53:00
1:53 PM,71.1,51.1,49,29.98,10.0,WSW,4.6,-,N/A,,Partly Cloudy,250,2013-09-15 19:53:00
2:53 PM,72.0,54.0,53,29.97,10.0,NW,8.1,-,N/A,,Partly Cloudy,310,2013-09-15 20:53:00
3:53 PM,73.0,52.0,48,29.94,10.0,West,6.9,-,N/A,,Clear,270,2013-09-15 21:53:00
4:53 PM,73.0,51.1,46,29.94,10.0,WNW,8.1,-,N/A,,Clear,290,2013-09-15 22:53:00
5:53 PM,70.0,54.0,57,29.95,10.0,West,3.5,-,N/A,,Clear,260,2013-09-15 23:53:00
6:53 PM,71.1,51.1,49,29.96,10.0,Calm,Calm,-,N/A,,Clear,0,2013-09-16 00:53:00
7:53 PM,64.9,55.0,70,29.98,10.0,Calm,Calm,-,N/A,,Clear,0,2013-09-16 01:53:00
8:53 PM,61.0,55.0,81,30.00,10.0,Calm,Calm,-,N/A,,Clear,0,2013-09-16 02:53:00
9:53 PM,57.9,54.0,87,30.02,10.0,NE,3.5,-,N/A,,Clear,50,2013-09-16 03:53:00
10:53 PM,57.0,53.1,87,30.01,10.0,ENE,4.6,-,N/A,,Clear,70,2013-09-16 04:53:00
11:53 PM,55.9,52.0,87,30.02,10.0,Calm,Calm,-,N/A,,Clear,0,2013-09-16 05:53:00